createdAt,value
2022-09-25T00:01:01.750Z,78.17
2022-09-25T00:03:30.000Z,78.99
2022-09-25T00:06:05.087Z,77.83
2022-09-25T00:08:33.209Z,78.14
2022-09-25T00:11:00.931Z,77.40
2022-09-25T00:13:27.999Z,77.73
2022-09-25T00:15:56.487Z,78.14
2022-09-25T00:18:43.846Z,78.51
2022-09-25T00:21:14.171Z,77.36
2022-09-25T00:23:44.774Z,77.74
2022-09-25T00:26:13.296Z,77.44
2022-09-25T00:28:42.734Z,76.50
2022-09-25T00:31:10.832Z,76.74
2022-09-25T00:33:37.989Z,76.24
2022-09-25T00:36:07.311Z,76.93
2022-09-25T00:38:35.791Z,78.74
2022-09-25T00:41:04.372Z,78.76
2022-09-25T00:43:40.575Z,78.79
2022-09-25T00:46:19.399Z,77.83
2022-09-25T00:48:51.955Z,78.09
2022-09-25T00:51:22.221Z,77.87
2022-09-25T00:53:50.060Z,77.85
2022-09-25T00:56:17.203Z,77.73
2022-09-25T00:58:44.348Z,77.24
2022-09-25T01:01:11.524Z,78.15
2022-09-25T01:03:40.425Z,77.55
2022-09-25T01:06:09.048Z,77.18
2022-09-25T01:08:36.637Z,76.67
2022-09-25T01:11:03.935Z,76.77
2022-09-25T01:13:31.000Z,76.67
2022-09-25T01:16:19.381Z,76.31
2022-09-25T01:19:09.602Z,75.88
2022-09-25T01:21:42.411Z,75.62
2022-09-25T01:24:33.967Z,75.04
2022-09-25T01:27:06.909Z,74.65
2022-09-25T01:29:39.665Z,73.80
2022-09-25T01:32:37.409Z,73.34
2022-09-25T01:35:08.774Z,73.17
2022-09-25T01:37:47.616Z,72.78
2022-09-25T01:40:33.960Z,73.22
2022-09-25T01:43:18.183Z,72.78
2022-09-25T01:45:52.986Z,72.45
2022-09-25T01:48:25.027Z,72.32
2022-09-25T01:50:59.515Z,72.50
2022-09-25T01:53:32.510Z,72.63
2022-09-25T01:56:07.055Z,72.41
2022-09-25T01:58:42.104Z,72.27
2022-09-25T02:01:17.568Z,72.40
2022-09-25T02:03:47.043Z,72.79
2022-09-25T02:06:19.759Z,72.39
2022-09-25T02:08:54.033Z,72.65
2022-09-25T02:11:21.471Z,72.90
2022-09-25T02:13:55.761Z,72.57
2022-09-25T02:16:27.833Z,72.67
2022-09-25T02:19:13.293Z,72.74
2022-09-25T02:22:07.159Z,72.36
2022-09-25T02:24:42.503Z,72.49
2022-09-25T02:27:09.548Z,72.75
2022-09-25T02:29:36.615Z,73.44
2022-09-25T02:32:06.241Z,72.98
2022-09-25T02:34:33.422Z,73.40
2022-09-25T02:37:00.606Z,73.08
2022-09-25T02:39:30.248Z,72.41
2022-09-25T02:42:42.727Z,72.80
2022-09-25T02:45:19.185Z,72.17
2022-09-25T02:48:01.061Z,72.56
2022-09-25T02:50:47.818Z,72.25
2022-09-25T02:53:36.636Z,72.14
2022-09-25T02:56:08.969Z,72.23
2022-09-25T02:58:52.912Z,72.12
2022-09-25T03:01:22.811Z,72.00
2022-09-25T03:03:52.072Z,72.30
2022-09-25T03:06:19.694Z,71.92
2022-09-25T03:08:49.328Z,72.53
2022-09-25T03:11:19.641Z,72.41
2022-09-25T03:13:55.935Z,72.62
2022-09-25T03:16:36.443Z,73.02
2022-09-25T03:19:03.926Z,72.63
2022-09-25T03:21:31.976Z,73.00
2022-09-25T03:23:59.953Z,72.81
2022-09-25T03:26:27.420Z,73.23
2022-09-25T03:28:54.718Z,72.88
2022-09-25T03:31:22.101Z,73.21
2022-09-25T03:33:49.482Z,72.84
2022-09-25T03:36:18.958Z,73.08
2022-09-25T03:38:48.245Z,73.27
2022-09-25T03:41:20.097Z,73.17
2022-09-25T03:43:54.455Z,73.39
2022-09-25T03:46:24.932Z,72.83
2022-09-25T03:48:53.148Z,73.44
2022-09-25T03:51:20.492Z,73.06
2022-09-25T03:53:48.608Z,73.32
2022-09-25T03:56:18.608Z,73.17
2022-09-25T03:58:46.839Z,73.17
2022-09-25T04:01:14.727Z,73.14
2022-09-25T04:03:45.518Z,73.69
2022-09-25T04:06:14.532Z,73.92
2022-09-25T04:08:42.259Z,74.10
2022-09-25T04:11:09.353Z,73.83
2022-09-25T04:13:37.272Z,73.85
2022-09-25T04:16:06.184Z,73.91
2022-09-25T04:18:33.520Z,74.42
2022-09-25T04:21:08.363Z,74.00
2022-09-25T04:23:36.618Z,73.99
2022-09-25T04:26:04.077Z,73.80
2022-09-25T04:28:32.180Z,73.69
2022-09-25T04:30:59.618Z,73.74
2022-09-25T04:33:48.467Z,73.38
2022-09-25T04:36:19.276Z,73.46
2022-09-25T04:38:47.949Z,73.08
2022-09-25T04:41:20.091Z,73.23
2022-09-25T04:43:47.695Z,73.24
2022-09-25T04:46:20.918Z,73.22
2022-09-25T04:48:49.098Z,73.34
2022-09-25T04:51:16.205Z,73.34
2022-09-25T04:53:43.302Z,73.32
2022-09-25T04:56:15.495Z,73.86
2022-09-25T04:58:47.836Z,73.96
2022-09-25T05:01:16.337Z,74.13
2022-09-25T05:03:43.615Z,74.53
2022-09-25T05:06:10.777Z,74.49
2022-09-25T05:08:37.854Z,73.84
2022-09-25T05:11:04.962Z,73.70
2022-09-25T05:13:32.043Z,73.43
2022-09-25T05:15:59.209Z,73.94
2022-09-25T05:18:26.709Z,73.60
2022-09-25T05:20:54.219Z,73.64
2022-09-25T05:23:22.040Z,73.89
2022-09-25T05:25:53.234Z,74.12
2022-09-25T05:28:20.305Z,74.19
2022-09-25T05:30:47.433Z,74.04
2022-09-25T05:33:14.522Z,74.74
2022-09-25T05:35:41.572Z,74.64
2022-09-25T05:38:08.857Z,74.09
2022-09-25T05:40:39.212Z,74.62
2022-09-25T05:43:06.760Z,74.48
2022-09-25T05:45:35.631Z,73.89
2022-09-25T05:48:07.249Z,74.15
2022-09-25T05:50:34.533Z,74.36
2022-09-25T05:53:03.637Z,73.96
2022-09-25T05:55:31.312Z,73.95
2022-09-25T05:58:02.840Z,74.13
2022-09-25T06:00:33.062Z,73.75
2022-09-25T06:03:01.265Z,74.81
2022-09-25T06:05:28.818Z,74.23
2022-09-25T06:07:56.243Z,75.13
2022-09-25T06:10:26.277Z,75.14
2022-09-25T06:12:59.896Z,75.53
2022-09-25T06:15:28.258Z,75.09
2022-09-25T06:17:56.116Z,74.90
2022-09-25T06:20:23.760Z,74.69
2022-09-25T06:22:57.497Z,74.46
2022-09-25T06:25:26.518Z,75.00
2022-09-25T06:27:54.982Z,74.94
2022-09-25T06:30:23.599Z,74.89
2022-09-25T06:32:57.517Z,74.45
2022-09-25T06:35:24.571Z,74.57
2022-09-25T06:37:51.720Z,74.41
2022-09-25T06:40:18.816Z,74.69
2022-09-25T06:42:46.913Z,74.89
2022-09-25T06:45:14.053Z,74.85
2022-09-25T06:47:41.198Z,75.02
2022-09-25T06:50:08.489Z,74.92
2022-09-25T06:52:42.105Z,75.28
2022-09-25T06:55:09.187Z,75.20
2022-09-25T06:57:38.013Z,75.33
2022-09-25T07:00:05.788Z,74.91
2022-09-25T07:02:51.752Z,75.08
2022-09-25T07:05:18.942Z,75.88
2022-09-25T07:07:46.387Z,75.33
2022-09-25T07:10:13.524Z,75.58
2022-09-25T07:12:41.376Z,76.19
2022-09-25T07:15:08.739Z,76.07
2022-09-25T07:17:36.147Z,76.58
2022-09-25T07:20:03.639Z,75.91
2022-09-25T07:22:30.741Z,75.38
2022-09-25T07:24:57.814Z,75.32
2022-09-25T07:27:25.023Z,74.64
2022-09-25T07:29:52.461Z,74.58
2022-09-25T07:32:20.677Z,74.45
2022-09-25T07:34:50.939Z,74.10
2022-09-25T07:37:18.377Z,73.90
2022-09-25T07:39:45.487Z,73.99
2022-09-25T07:42:13.015Z,73.72
2022-09-25T07:44:43.481Z,73.54
2022-09-25T07:47:15.289Z,73.81
2022-09-25T07:49:42.381Z,74.52
2022-09-25T07:52:09.464Z,74.00
2022-09-25T07:54:37.744Z,74.15
2022-09-25T07:57:04.882Z,74.10
2022-09-25T07:59:31.974Z,73.91
2022-09-25T08:01:59.159Z,73.96
2022-09-25T08:04:26.300Z,73.83
2022-09-25T08:06:53.399Z,74.03
2022-09-25T08:09:20.452Z,73.95
2022-09-25T08:11:47.513Z,73.36
2022-09-25T08:14:14.752Z,73.20
2022-09-25T08:16:43.075Z,72.83
2022-09-25T08:19:11.202Z,72.65
2022-09-25T08:21:38.299Z,72.43
2022-09-25T08:24:05.810Z,72.44
2022-09-25T08:26:32.926Z,72.57
2022-09-25T08:29:00.190Z,72.58
2022-09-25T08:31:27.442Z,72.51
2022-09-25T08:33:54.637Z,72.13
2022-09-25T08:36:21.939Z,71.95
2022-09-25T08:38:49.414Z,71.82
2022-09-25T08:41:19.024Z,71.60
2022-09-25T08:43:57.505Z,71.30
2022-09-25T08:47:20.245Z,71.33
2022-09-25T08:50:21.820Z,71.47
2022-09-25T08:52:52.255Z,72.16
2022-09-25T08:55:46.351Z,72.40
2022-09-25T08:58:21.104Z,72.06
2022-09-25T09:00:49.323Z,72.20
2022-09-25T09:03:17.021Z,72.12
2022-09-25T09:05:51.492Z,71.85
2022-09-25T09:08:25.249Z,72.05
2022-09-25T09:10:57.376Z,72.34
2022-09-25T09:13:28.896Z,72.21
2022-09-25T09:16:03.877Z,71.44
2022-09-25T09:18:39.521Z,71.34
2022-09-25T09:21:35.363Z,71.10
2022-09-25T09:24:08.672Z,70.26
2022-09-25T09:27:05.888Z,70.09
2022-09-25T09:29:54.144Z,69.61
2022-09-25T09:32:41.539Z,68.59
2022-09-25T09:35:32.786Z,68.60
2022-09-25T09:38:28.418Z,68.85
2022-09-25T09:41:07.097Z,68.77
2022-09-25T09:43:57.226Z,68.56
2022-09-25T09:47:02.805Z,68.19
2022-09-25T09:49:42.064Z,68.19
2022-09-25T09:52:24.502Z,68.60
2022-09-25T09:54:55.982Z,67.94
2022-09-25T09:57:28.400Z,68.00
2022-09-25T10:00:04.883Z,67.85
2022-09-25T10:02:42.005Z,67.51
2022-09-25T10:05:17.288Z,66.45
2022-09-25T10:07:45.147Z,67.05
2022-09-25T10:10:14.703Z,66.84
2022-09-25T10:12:50.950Z,66.65
2022-09-25T10:15:30.482Z,66.29
2022-09-25T10:17:59.686Z,66.06
2022-09-25T10:20:31.729Z,66.53
2022-09-25T10:23:00.933Z,66.35
2022-09-25T10:25:39.399Z,66.10
2022-09-25T10:28:22.791Z,66.27
2022-09-25T10:30:50.879Z,66.13
2022-09-25T10:33:29.657Z,66.17
2022-09-25T10:35:57.089Z,65.56
2022-09-25T10:38:29.981Z,62.99
2022-09-25T10:41:14.187Z,63.13
2022-09-25T10:44:00.147Z,63.13
2022-09-25T10:46:48.691Z,63.79
2022-09-25T10:49:37.051Z,64.03
2022-09-25T10:52:09.387Z,62.79
2022-09-25T10:54:41.868Z,62.32
2022-09-25T10:57:26.838Z,61.24
2022-09-25T10:59:54.714Z,61.74
2022-09-25T11:02:46.851Z,61.06
2022-09-25T11:05:19.811Z,60.86
2022-09-25T11:07:52.248Z,59.43
2022-09-25T11:10:27.417Z,57.89
2022-09-25T11:12:54.562Z,58.45
2022-09-25T11:15:23.652Z,58.51
2022-09-25T11:17:53.772Z,57.88
2022-09-25T11:20:29.479Z,57.70
2022-09-25T11:23:42.436Z,56.96
2022-09-25T11:26:19.513Z,57.78
2022-09-25T11:28:54.832Z,56.42
2022-09-25T11:31:21.786Z,57.12
2022-09-25T11:34:20.852Z,56.31
2022-09-25T11:36:52.518Z,54.89
2022-09-25T11:40:08.260Z,54.82
2022-09-25T11:42:51.894Z,54.52
2022-09-25T11:45:26.312Z,55.28
2022-09-25T11:48:29.007Z,55.39
2022-09-25T11:51:07.654Z,55.43
2022-09-25T11:53:44.295Z,54.70
2022-09-25T11:56:38.392Z,54.15
2022-09-25T11:59:21.622Z,54.68
2022-09-25T12:02:00.724Z,54.83
2022-09-25T12:04:59.809Z,54.34
2022-09-25T12:07:45.424Z,54.55
2022-09-25T12:10:36.163Z,54.60
2022-09-25T12:13:14.049Z,54.96
2022-09-25T12:15:50.868Z,55.26
2022-09-25T12:18:33.310Z,53.87
2022-09-25T12:21:05.969Z,54.80
2022-09-25T12:23:39.124Z,54.47
2022-09-25T12:26:26.699Z,51.48
2022-09-25T12:29:26.017Z,50.91
2022-09-25T12:32:04.321Z,51.03
2022-09-25T12:34:43.683Z,52.31
2022-09-25T12:37:27.299Z,51.44
2022-09-25T12:40:02.645Z,51.12
2022-09-25T12:42:47.286Z,48.29
2022-09-25T12:45:20.392Z,48.41
2022-09-25T12:48:17.064Z,49.14
2022-09-25T12:51:05.645Z,45.82
2022-09-25T12:53:45.783Z,47.56
2022-09-25T12:56:30.080Z,46.22
2022-09-25T12:59:15.978Z,46.48
2022-09-25T13:02:10.321Z,43.80
2022-09-25T13:04:37.270Z,44.06
2022-09-25T13:07:14.055Z,45.49
2022-09-25T13:09:48.751Z,43.08
2022-09-25T13:12:27.875Z,43.62
2022-09-25T13:14:59.746Z,44.02
2022-09-25T13:17:27.095Z,45.66
2022-09-25T13:19:54.321Z,44.95
2022-09-25T13:22:25.566Z,46.11
2022-09-25T13:25:05.616Z,46.16
2022-09-25T13:27:44.211Z,46.72
2022-09-25T13:30:25.409Z,46.81
2022-09-25T13:32:59.536Z,46.02
2022-09-25T13:35:26.716Z,46.59
2022-09-25T13:37:55.869Z,47.27
2022-09-25T13:40:46.008Z,47.09
2022-09-25T13:43:27.737Z,48.18
2022-09-25T13:46:17.105Z,48.60
2022-09-25T13:48:44.397Z,48.61
2022-09-25T13:51:17.994Z,48.83
2022-09-25T13:53:53.781Z,49.45
2022-09-25T13:56:26.179Z,49.67
2022-09-25T13:59:15.493Z,48.91
2022-09-25T14:02:25.070Z,49.48
2022-09-25T14:04:52.275Z,48.19
2022-09-25T14:07:23.279Z,48.58
2022-09-25T14:09:53.852Z,47.31
2022-09-25T14:12:37.996Z,47.29
2022-09-25T14:15:07.948Z,47.20
2022-09-25T14:17:36.182Z,47.76
2022-09-25T14:20:06.618Z,47.54
2022-09-25T14:22:44.133Z,48.70
2022-09-25T14:25:33.066Z,48.36
2022-09-25T14:28:01.281Z,48.71
2022-09-25T14:30:30.126Z,49.70
2022-09-25T14:33:30.084Z,50.22
2022-09-25T14:36:07.858Z,51.09
2022-09-25T14:39:02.932Z,51.12
2022-09-25T14:41:52.921Z,51.33
2022-09-25T14:44:51.850Z,51.26
2022-09-25T14:47:19.376Z,51.27
2022-09-25T14:49:50.707Z,51.74
2022-09-25T14:52:24.977Z,52.12
2022-09-25T14:54:55.152Z,52.92
2022-09-25T14:57:28.427Z,53.26
2022-09-25T14:59:58.351Z,53.65
2022-09-25T15:02:34.273Z,53.57
2022-09-25T15:05:24.030Z,54.08
2022-09-25T15:07:51.451Z,54.59
2022-09-25T15:10:37.421Z,54.76
2022-09-25T15:13:10.069Z,54.61
2022-09-25T15:15:38.789Z,54.98
2022-09-25T15:18:09.469Z,54.74
2022-09-25T15:20:46.711Z,54.34
2022-09-25T15:23:17.978Z,54.34
2022-09-25T15:25:48.074Z,53.77
2022-09-25T15:28:18.054Z,53.90
2022-09-25T15:30:47.186Z,54.09
2022-09-25T15:33:29.228Z,54.45
2022-09-25T15:36:01.207Z,54.54
2022-09-25T15:38:33.149Z,55.07
2022-09-25T15:41:00.432Z,55.67
2022-09-25T15:43:27.752Z,56.16
2022-09-25T15:45:58.210Z,56.32
2022-09-25T15:48:32.713Z,56.47
2022-09-25T15:51:14.365Z,57.29
2022-09-25T15:53:43.930Z,57.67
2022-09-25T15:56:24.771Z,57.81
2022-09-25T15:58:58.932Z,58.40
2022-09-25T16:01:47.601Z,58.45
2022-09-25T16:04:39.277Z,58.84
2022-09-25T16:07:32.274Z,60.15
2022-09-25T16:10:10.140Z,61.21
2022-09-25T16:12:40.768Z,62.16
2022-09-25T16:15:26.770Z,62.24
2022-09-25T16:18:00.232Z,62.68
2022-09-25T16:20:32.471Z,62.07
2022-09-25T16:23:03.424Z,61.71
2022-09-25T16:25:38.581Z,61.45
2022-09-25T16:28:10.729Z,61.98
2022-09-25T16:30:38.122Z,61.64
2022-09-25T16:33:12.943Z,61.42
2022-09-25T16:36:08.195Z,61.57
2022-09-25T16:38:29.738Z,61.54
2022-09-25T16:41:23.089Z,61.74
2022-09-25T16:44:15.201Z,61.72
2022-09-25T16:46:54.924Z,62.17
2022-09-25T16:49:23.459Z,62.27
2022-09-25T16:51:53.958Z,62.05
2022-09-25T16:54:22.105Z,61.36
2022-09-25T16:56:49.223Z,61.76
2022-09-25T16:59:22.080Z,61.95
2022-09-25T17:01:51.519Z,62.06
2022-09-25T17:04:24.511Z,61.97
2022-09-25T17:06:52.036Z,61.71
2022-09-25T17:09:19.184Z,61.66
2022-09-25T17:11:47.771Z,61.79
2022-09-25T17:14:26.186Z,62.01
2022-09-25T17:16:54.626Z,62.48
2022-09-25T17:19:22.239Z,62.57
2022-09-25T17:21:51.348Z,63.04
2022-09-25T17:24:26.746Z,62.96
2022-09-25T17:26:54.218Z,62.98
2022-09-25T17:29:21.473Z,63.48
2022-09-25T17:31:48.800Z,64.21
2022-09-25T17:34:24.477Z,64.15
2022-09-25T17:36:51.941Z,64.89
2022-09-25T17:39:19.073Z,64.53
2022-09-25T17:41:46.413Z,65.49
2022-09-25T17:44:18.608Z,65.98
2022-09-25T17:46:45.796Z,66.78
2022-09-25T17:49:13.330Z,66.61
2022-09-25T17:51:40.778Z,66.91
2022-09-25T17:54:09.417Z,67.82
2022-09-25T17:56:37.734Z,68.22
2022-09-25T17:59:05.164Z,69.50
2022-09-25T18:01:38.372Z,69.71
2022-09-25T18:04:24.710Z,69.64
2022-09-25T18:06:51.989Z,70.89
2022-09-25T18:09:19.172Z,70.79
2022-09-25T18:11:46.777Z,70.39
2022-09-25T18:14:14.904Z,71.75
2022-09-25T18:16:43.560Z,71.48
2022-09-25T18:19:34.238Z,70.79
2022-09-25T18:22:21.816Z,71.57
2022-09-25T18:24:56.276Z,71.57
2022-09-25T18:27:28.795Z,72.72
2022-09-25T18:29:56.320Z,72.57
2022-09-25T18:32:24.157Z,72.99
2022-09-25T18:34:51.557Z,73.23
2022-09-25T18:37:18.956Z,72.89
2022-09-25T18:39:47.896Z,73.31
2022-09-25T18:42:15.055Z,73.96
2022-09-25T18:44:43.246Z,74.04
2022-09-25T18:47:11.483Z,74.50
2022-09-25T18:49:38.730Z,74.68
2022-09-25T18:52:06.135Z,75.63
2022-09-25T18:54:34.419Z,76.04
2022-09-25T18:57:01.892Z,75.48
2022-09-25T18:59:29.085Z,76.26
2022-09-25T19:01:56.605Z,76.71
2022-09-25T19:04:25.667Z,77.19
2022-09-25T19:06:52.947Z,77.51
2022-09-25T19:09:28.175Z,77.22
2022-09-25T19:11:55.782Z,78.00
2022-09-25T19:14:23.981Z,78.35
2022-09-25T19:16:53.781Z,78.28
2022-09-25T19:19:20.961Z,79.57
2022-09-25T19:21:48.127Z,80.50
2022-09-25T19:24:18.177Z,81.74
2022-09-25T19:26:45.535Z,81.25
2022-09-25T19:29:12.732Z,80.44
2022-09-25T19:31:40.116Z,81.43
2022-09-25T19:34:07.369Z,80.88
2022-09-25T19:36:34.844Z,81.95
2022-09-25T19:39:02.609Z,82.14
2022-09-25T19:41:31.867Z,83.38
2022-09-25T19:44:11.314Z,83.71
2022-09-25T19:46:41.546Z,84.01
2022-09-25T19:49:09.485Z,84.69
2022-09-25T19:51:37.646Z,84.91
2022-09-25T19:54:07.434Z,84.86
2022-09-25T19:56:40.429Z,85.07
2022-09-25T19:59:10.022Z,83.97
2022-09-25T20:01:38.201Z,84.70
2022-09-25T20:04:08.469Z,84.81
2022-09-25T20:06:36.890Z,84.88
2022-09-25T20:09:04.521Z,84.06
2022-09-25T20:11:33.279Z,84.37
2022-09-25T20:14:02.815Z,85.38
2022-09-25T20:16:30.151Z,86.00
2022-09-25T20:19:00.174Z,87.08
2022-09-25T20:21:30.119Z,86.12
2022-09-25T20:23:59.693Z,86.39
2022-09-25T20:26:27.438Z,86.85
2022-09-25T20:28:58.200Z,87.95
2022-09-25T20:33:54.912Z,86.79
2022-09-25T20:36:22.646Z,87.70
2022-09-25T20:38:53.587Z,87.97
2022-09-25T20:41:22.233Z,88.73
2022-09-25T20:43:50.812Z,89.11
2022-09-25T20:46:19.558Z,89.64
2022-09-25T20:48:48.051Z,89.85
2022-09-25T20:51:17.560Z,90.52
2022-09-25T20:53:49.748Z,90.26
2022-09-25T20:56:17.288Z,90.52
2022-09-25T20:58:49.429Z,90.64
2022-09-25T21:01:22.942Z,90.04
2022-09-25T21:03:51.173Z,91.11
2022-09-25T21:06:26.348Z,90.51
2022-09-25T21:08:55.269Z,91.06
2022-09-25T21:11:23.229Z,91.80
2022-09-25T21:13:52.066Z,92.28
2022-09-25T21:16:20.966Z,92.63
2022-09-25T21:18:53.267Z,93.11
2022-09-25T21:21:20.545Z,92.46
2022-09-25T21:23:50.009Z,91.86
2022-09-25T21:26:17.509Z,93.09
2022-09-25T21:28:46.660Z,94.21
2022-09-25T21:31:19.678Z,93.84
2022-09-25T21:33:46.937Z,94.52
2022-09-25T21:36:16.788Z,94.05
2022-09-25T21:38:44.008Z,93.31
2022-09-25T21:41:15.753Z,92.82
2022-09-25T21:43:43.151Z,94.77
2022-09-25T21:46:15.922Z,95.64
2022-09-25T21:48:49.349Z,95.98
2022-09-25T21:51:17.611Z,96.14
2022-09-25T21:53:44.829Z,96.02
2022-09-25T21:56:14.386Z,95.80
2022-09-25T21:58:41.875Z,97.19
2022-09-25T22:01:19.947Z,97.72
2022-09-25T22:03:49.752Z,98.25
2022-09-25T22:06:19.992Z,98.75
2022-09-25T22:08:52.091Z,96.86
2022-09-25T22:11:19.983Z,97.78
2022-09-25T22:13:48.344Z,98.12
2022-09-25T22:16:24.052Z,97.86
2022-09-25T22:18:57.237Z,97.30
2022-09-25T22:21:26.912Z,97.36
2022-09-25T22:23:54.042Z,96.27
2022-09-25T22:26:22.077Z,96.39
2022-09-25T22:28:49.596Z,96.12
2022-09-25T22:31:19.220Z,97.26
2022-09-25T22:33:47.664Z,96.57
2022-09-25T22:36:14.933Z,96.84
2022-09-25T22:38:42.096Z,96.52
2022-09-25T22:41:11.256Z,97.26
2022-09-25T22:43:38.544Z,97.03
2022-09-25T22:46:06.707Z,97.24
2022-09-25T22:48:34.227Z,97.66
2022-09-25T22:51:06.491Z,97.03
2022-09-25T22:53:34.990Z,95.57
2022-09-25T22:56:16.151Z,96.51
2022-09-25T22:58:47.013Z,97.25
2022-09-25T23:01:20.960Z,96.59
2022-09-25T23:03:48.135Z,97.33
2022-09-25T23:06:15.248Z,97.30
2022-09-25T23:08:42.386Z,97.93
2022-09-25T23:11:09.479Z,98.62
2022-09-25T23:13:36.727Z,98.81
2022-09-25T23:16:07.742Z,98.25
2022-09-25T23:18:36.501Z,98.81
2022-09-25T23:21:04.318Z,98.24
2022-09-25T23:23:31.645Z,98.03
2022-09-25T23:26:06.029Z,97.90
2022-09-25T23:28:35.086Z,98.94
2022-09-25T23:31:20.756Z,98.88
2022-09-25T23:33:48.080Z,98.59
2022-09-25T23:36:21.693Z,98.69
2022-09-25T23:38:49.876Z,98.94
2022-09-25T23:41:24.060Z,99.08
2022-09-25T23:43:52.111Z,99.30
2022-09-25T23:46:21.095Z,99.17
2022-09-25T23:48:48.418Z,99.12
2022-09-25T23:51:17.915Z,99.59
2022-09-25T23:53:45.323Z,99.76
2022-09-25T23:56:15.841Z,98.40
2022-09-25T23:58:43.762Z,98.37
